Terminal Aerodrome Forecast
Issued by NWS Pocatello, ID

Home | Current Version | Previous Version | Text Only | Print | Product List | Glossary On
Versions: 1 2 3 4 5 6 7 8 9 10 11 12 13 14 15 16 17 18 19 20 21 22 23 24 25 26 27 28 29
000
FTUS45 KPIH 232342
TAFIDA
TAF
KIDA 232342Z 2400/2424 20015G25KT P6SM SCT060 SCT090
     FM240300 19015G25KT P6SM VCSH BKN060
     FM240600 21015G25KT P6SM SCT040
     FM241100 22020KT 6SM BR SCT025 BKN070
     FM241400 24015KT 6SM BR VCSH BKN015 OVC080
     FM241930 24015KT P6SM VCSH SCT015 OVC060=

USA.gov is the U.S. government's official web portal to all federal, state and local government web resources and services.